Time,TemperatureF,DewpointF,PressureIn,WindDirection,WindDirectionDegrees,WindSpeedMPH,WindSpeedGustMPH,Humidity,HourlyPrecipIn,Conditions,Clouds,dailyrainin,SolarRadiationWatts/m^2,SoftwareType,DateUTC
2013-05-12 00:03:00,-999.0,-99.9,-100.00,South,172,0.0,11.0,81,0.00,,,0.00,0.000000,,2013-05-12 04:03:00,
2013-05-12 00:33:00,54.0,51.0,-100.00,SE,136,0.0,0.0,90,0.00,,,0.00,0.000000,,2013-05-12 04:33:00,
2013-05-12 00:43:00,54.0,51.0,-100.00,SE,136,0.0,0.0,90,0.00,,,0.00,0.000000,,2013-05-12 04:43:00,
2013-05-12 00:52:00,54.0,51.0,-100.00,SE,136,0.0,0.0,90,0.00,,,0.00,0.000000,,2013-05-12 04:52:00,
2013-05-12 01:02:00,54.0,51.0,-100.00,SE,136,0.0,0.0,90,0.00,,,0.00,0.000000,,2013-05-12 05:02:00,
2013-05-12 01:32:00,51.0,50.0,-100.00,SSE,157,0.0,0.0,95,0.00,,,0.00,0.000000,,2013-05-12 05:32:00,
2013-05-12 01:42:00,51.0,50.0,-100.00,SSE,157,0.0,0.0,95,0.00,,,0.00,0.000000,,2013-05-12 05:42:00,
2013-05-12 01:52:00,51.0,50.0,-100.00,SSE,157,0.0,0.0,95,0.00,,,0.00,0.000000,,2013-05-12 05:52:00,
2013-05-12 02:02:00,51.0,50.0,-100.00,SSE,157,0.0,0.0,95,0.00,,,0.00,0.000000,,2013-05-12 06:02:00,
2013-05-12 02:32:00,51.0,50.0,-100.00,SE,137,0.0,0.0,96,0.00,,,0.00,0.000000,,2013-05-12 06:32:00,
2013-05-12 02:42:00,51.0,50.0,-100.00,SE,137,0.0,0.0,96,0.00,,,0.00,0.000000,,2013-05-12 06:42:00,
2013-05-12 02:52:00,51.0,50.0,-100.00,SE,137,0.0,0.0,96,0.00,,,0.00,0.000000,,2013-05-12 06:52:00,
2013-05-12 03:02:00,51.0,50.0,-100.00,SE,137,0.0,0.0,96,0.00,,,0.00,0.000000,,2013-05-12 07:02:00,
2013-05-12 03:32:00,53.0,52.0,-100.00,South,189,0.0,0.0,97,0.00,,,0.00,0.000000,,2013-05-12 07:32:00,
2013-05-12 03:42:00,53.0,52.0,-100.00,South,189,0.0,0.0,97,0.00,,,0.00,0.000000,,2013-05-12 07:42:00,
2013-05-12 03:52:00,53.0,52.0,-100.00,South,189,0.0,0.0,97,0.00,,,0.00,0.000000,,2013-05-12 07:52:00,
2013-05-12 04:02:00,53.0,52.0,-100.00,South,189,0.0,0.0,97,0.00,,,0.00,0.000000,,2013-05-12 08:02:00,
2013-05-12 04:32:00,54.0,53.0,-100.00,WSW,239,0.0,0.0,95,0.00,,,0.00,0.000000,,2013-05-12 08:32:00,
2013-05-12 04:42:00,54.0,53.0,-100.00,WSW,239,0.0,0.0,95,0.00,,,0.00,0.000000,,2013-05-12 08:42:00,
2013-05-12 04:53:00,54.0,53.0,-100.00,WSW,239,0.0,0.0,95,0.00,,,0.00,0.000000,,2013-05-12 08:53:00,
2013-05-12 05:01:00,54.0,53.0,-100.00,WSW,239,0.0,0.0,95,0.00,,,0.00,0.000000,,2013-05-12 09:01:00,
2013-05-12 05:33:00,56.0,45.0,-100.00,NNW,346,8.0,14.0,66,0.00,,,0.00,0.000000,,2013-05-12 09:33:00,
2013-05-12 05:43:00,56.0,45.0,-100.00,NNW,346,8.0,14.0,66,0.00,,,0.00,0.000000,,2013-05-12 09:43:00,
2013-05-12 05:53:00,56.0,45.0,-100.00,NNW,346,8.0,14.0,66,0.00,,,0.00,0.000000,,2013-05-12 09:53:00,
2013-05-12 06:03:00,56.0,45.0,-100.00,NNW,346,8.0,14.0,66,0.00,,,0.00,0.000000,,2013-05-12 10:03:00,
2013-05-12 06:33:00,54.0,43.0,-100.00,NNW,348,4.0,17.0,66,0.00,,,0.00,0.000000,,2013-05-12 10:33:00,
2013-05-12 06:42:00,54.0,43.0,-100.00,NNW,348,4.0,17.0,66,0.00,,,0.00,0.000000,,2013-05-12 10:42:00,
2013-05-12 06:52:00,54.0,43.0,-100.00,NNW,348,4.0,17.0,66,0.00,,,0.00,0.000000,,2013-05-12 10:52:00,
2013-05-12 07:02:00,54.0,43.0,-100.00,NNW,348,4.0,17.0,66,0.00,,,0.00,0.000000,,2013-05-12 11:02:00,
2013-05-12 07:32:00,53.0,38.0,-100.00,NNE,29,5.0,14.0,56,0.00,,,0.00,6.000000,,2013-05-12 11:32:00,
2013-05-12 07:42:00,53.0,38.0,-100.00,NNE,29,5.0,14.0,56,0.00,,,0.00,6.000000,,2013-05-12 11:42:00,
2013-05-12 07:52:00,53.0,38.0,-100.00,NNE,29,5.0,14.0,56,0.00,,,0.00,6.000000,,2013-05-12 11:52:00,
2013-05-12 08:02:00,53.0,38.0,-100.00,NNE,29,5.0,14.0,56,0.00,,,0.00,6.000000,,2013-05-12 12:02:00,
2013-05-12 09:32:00,56.0,35.0,-100.00,North,2,8.0,13.0,45,-99.99,,,0.00,286.000000,,2013-05-12 13:32:00,
2013-05-12 09:42:00,56.0,35.0,-100.00,North,2,8.0,13.0,45,-99.99,,,0.00,286.000000,,2013-05-12 13:42:00,
2013-05-12 09:52:00,56.0,35.0,-100.00,North,2,8.0,13.0,45,-99.99,,,0.00,286.000000,,2013-05-12 13:52:00,
2013-05-12 10:01:00,56.0,35.0,-100.00,North,2,8.0,13.0,45,-99.99,,,0.00,286.000000,,2013-05-12 14:01:00,
2013-05-12 10:32:00,58.0,33.0,-100.00,North,358,8.0,14.0,39,0.00,,,0.00,483.000000,,2013-05-12 14:32:00,
2013-05-12 10:42:00,58.0,33.0,-100.00,North,358,8.0,14.0,39,0.00,,,0.00,483.000000,,2013-05-12 14:42:00,
2013-05-12 10:52:00,58.0,33.0,-100.00,North,358,8.0,14.0,39,0.00,,,0.00,483.000000,,2013-05-12 14:52:00,
2013-05-12 11:01:00,58.0,33.0,-100.00,North,358,8.0,14.0,39,0.00,,,0.00,483.000000,,2013-05-12 15:01:00,
2013-05-12 11:34:00,60.0,32.0,-100.00,North,358,5.0,13.0,34,0.00,,,-99.99,666.000000,,2013-05-12 15:34:00,
2013-05-12 11:42:00,60.0,32.0,-100.00,North,358,5.0,13.0,34,0.00,,,-99.99,666.000000,,2013-05-12 15:42:00,
2013-05-12 11:53:00,60.0,32.0,-100.00,North,358,5.0,13.0,34,0.00,,,-99.99,666.000000,,2013-05-12 15:53:00,
2013-05-12 12:02:00,60.0,32.0,-100.00,North,358,5.0,13.0,34,0.00,,,-99.99,666.000000,,2013-05-12 16:02:00,
2013-05-12 12:33:00,62.0,31.0,-100.00,North,3,5.0,15.0,31,0.00,,,0.00,799.000000,,2013-05-12 16:33:00,
2013-05-12 12:42:00,62.0,31.0,-100.00,North,3,5.0,15.0,31,0.00,,,0.00,799.000000,,2013-05-12 16:42:00,
2013-05-12 12:53:00,62.0,31.0,-100.00,North,3,5.0,15.0,31,0.00,,,0.00,799.000000,,2013-05-12 16:53:00,
2013-05-12 13:02:00,62.0,31.0,-100.00,North,3,5.0,15.0,31,0.00,,,0.00,799.000000,,2013-05-12 17:02:00,
2013-05-12 13:32:00,64.0,32.0,-100.00,WNW,299,3.0,13.0,30,0.00,,,-99.99,906.000000,,2013-05-12 17:32:00,
2013-05-12 13:42:00,64.0,32.0,-100.00,WNW,299,3.0,13.0,30,0.00,,,-99.99,906.000000,,2013-05-12 17:42:00,
2013-05-12 13:53:00,64.0,32.0,-100.00,WNW,299,3.0,13.0,30,0.00,,,-99.99,906.000000,,2013-05-12 17:53:00,
2013-05-12 14:01:00,64.0,32.0,-100.00,WNW,299,3.0,13.0,30,0.00,,,-99.99,906.000000,,2013-05-12 18:01:00,
2013-05-12 14:32:00,65.0,29.0,-100.00,NNW,336,4.0,14.0,26,0.00,,,0.00,945.000000,,2013-05-12 18:32:00,
2013-05-12 14:42:00,65.0,29.0,-100.00,NNW,336,4.0,14.0,26,0.00,,,0.00,945.000000,,2013-05-12 18:42:00,
2013-05-12 14:52:00,65.0,29.0,-100.00,NNW,336,4.0,14.0,26,0.00,,,0.00,945.000000,,2013-05-12 18:52:00,
2013-05-12 15:01:00,65.0,29.0,-100.00,NNW,336,4.0,14.0,26,0.00,,,0.00,945.000000,,2013-05-12 19:01:00,
2013-05-12 15:32:00,67.0,29.0,-100.00,NNE,21,3.0,13.0,24,0.00,,,0.00,924.000000,,2013-05-12 19:32:00,
2013-05-12 15:42:00,67.0,29.0,-100.00,NNE,21,3.0,13.0,24,0.00,,,0.00,924.000000,,2013-05-12 19:42:00,
2013-05-12 15:52:00,67.0,29.0,-100.00,NNE,21,3.0,13.0,24,0.00,,,0.00,924.000000,,2013-05-12 19:52:00,
2013-05-12 16:02:00,67.0,29.0,-100.00,NNE,21,3.0,13.0,24,0.00,,,0.00,924.000000,,2013-05-12 20:02:00,
2013-05-12 16:32:00,67.0,28.0,-100.00,North,351,7.0,16.0,23,0.00,,,0.00,847.000000,,2013-05-12 20:32:00,
2013-05-12 16:42:00,67.0,28.0,-100.00,North,351,7.0,16.0,23,0.00,,,0.00,847.000000,,2013-05-12 20:42:00,
2013-05-12 16:52:00,67.0,28.0,-100.00,North,351,7.0,16.0,23,0.00,,,0.00,847.000000,,2013-05-12 20:52:00,
2013-05-12 17:01:00,67.0,28.0,-100.00,North,351,7.0,16.0,23,0.00,,,0.00,847.000000,,2013-05-12 21:01:00,
2013-05-12 17:33:00,68.0,31.0,-100.00,NW,307,3.0,15.0,25,0.00,,,0.00,620.000000,,2013-05-12 21:33:00,
2013-05-12 17:42:00,68.0,31.0,-100.00,NW,307,3.0,15.0,25,0.00,,,0.00,620.000000,,2013-05-12 21:42:00,
2013-05-12 17:53:00,68.0,31.0,-100.00,NW,307,3.0,15.0,25,0.00,,,0.00,620.000000,,2013-05-12 21:53:00,
2013-05-12 18:02:00,68.0,31.0,-100.00,NW,307,3.0,15.0,25,0.00,,,0.00,620.000000,,2013-05-12 22:02:00,
2013-05-12 18:33:00,67.0,31.0,-100.00,West,275,5.0,14.0,26,0.00,,,0.00,539.000000,,2013-05-12 22:33:00,
2013-05-12 18:42:00,67.0,31.0,-100.00,West,275,5.0,14.0,26,0.00,,,0.00,539.000000,,2013-05-12 22:42:00,
2013-05-12 18:52:00,67.0,31.0,-100.00,West,275,5.0,14.0,26,0.00,,,0.00,539.000000,,2013-05-12 22:52:00,
2013-05-12 19:02:00,67.0,31.0,-100.00,West,275,5.0,14.0,26,0.00,,,0.00,539.000000,,2013-05-12 23:02:00,
2013-05-12 19:32:00,66.0,30.0,-100.00,NW,307,5.0,14.0,26,0.00,,,0.00,276.000000,,2013-05-12 23:32:00,
2013-05-12 19:42:00,66.0,30.0,-100.00,NW,307,5.0,14.0,26,0.00,,,0.00,276.000000,,2013-05-12 23:42:00,
2013-05-12 19:52:00,66.0,30.0,-100.00,NW,307,5.0,14.0,26,0.00,,,0.00,276.000000,,2013-05-12 23:52:00,
2013-05-12 20:01:00,66.0,30.0,-100.00,NW,307,5.0,14.0,26,0.00,,,0.00,276.000000,,2013-05-13 00:01:00,
2013-05-12 20:32:00,60.0,31.0,-100.00,WNW,283,2.0,11.0,33,0.00,,,0.00,129.000000,,2013-05-13 00:32:00,
2013-05-12 20:42:00,60.0,31.0,-100.00,WNW,283,2.0,11.0,33,0.00,,,0.00,129.000000,,2013-05-13 00:42:00,
2013-05-12 20:52:00,60.0,31.0,-100.00,WNW,283,2.0,11.0,33,0.00,,,0.00,129.000000,,2013-05-13 00:52:00,
2013-05-12 21:01:00,60.0,31.0,-100.00,WNW,283,2.0,11.0,33,0.00,,,0.00,129.000000,,2013-05-13 01:01:00,
2013-05-12 21:32:00,55.0,32.0,-100.00,WSW,252,0.0,8.0,41,0.00,,,0.00,7.000000,,2013-05-13 01:32:00,
2013-05-12 21:42:00,55.0,32.0,-100.00,WSW,252,0.0,8.0,41,0.00,,,0.00,7.000000,,2013-05-13 01:42:00,
2013-05-12 21:52:00,55.0,32.0,-100.00,WSW,252,0.0,8.0,41,0.00,,,0.00,7.000000,,2013-05-13 01:52:00,
2013-05-12 22:02:00,55.0,32.0,-100.00,WSW,252,0.0,8.0,41,0.00,,,0.00,7.000000,,2013-05-13 02:02:00,
2013-05-12 22:32:00,51.0,38.0,-100.00,ENE,59,0.0,3.0,61,0.00,,,0.00,0.000000,,2013-05-13 02:32:00,
2013-05-12 22:42:00,51.0,38.0,-100.00,ENE,59,0.0,3.0,61,0.00,,,0.00,0.000000,,2013-05-13 02:42:00,
2013-05-12 22:52:00,51.0,38.0,-100.00,ENE,59,0.0,3.0,61,0.00,,,0.00,0.000000,,2013-05-13 02:52:00,
2013-05-12 23:02:00,51.0,38.0,-100.00,ENE,59,0.0,3.0,61,0.00,,,0.00,0.000000,,2013-05-13 03:02:00,
2013-05-12 23:33:00,44.0,39.0,-100.00,ENE,63,0.0,0.0,82,0.00,,,0.00,0.000000,,2013-05-13 03:33:00,
2013-05-12 23:42:00,44.0,39.0,-100.00,ENE,63,0.0,0.0,82,0.00,,,0.00,0.000000,,2013-05-13 03:42:00,
2013-05-12 23:53:00,44.0,39.0,-100.00,ENE,63,0.0,0.0,82,0.00,,,0.00,0.000000,,2013-05-13 03:53:00,